sensor_id;sensor_type;location;lat;lon;timestamp;temperature;humidity
2543;DHT22;1116;51.502;7.414;2024-01-10T00:00:48;-3.70;1.00
2543;DHT22;1116;51.502;7.414;2024-01-10T00:03:20;-3.20;1.00
2543;DHT22;1116;51.502;7.414;2024-01-10T00:05:50;-3.20;1.00
2543;DHT22;1116;51.502;7.414;2024-01-10T00:08:21;-3.80;1.00
2543;DHT22;1116;51.502;7.414;2024-01-10T00:10:52;-3.30;1.00
2543;DHT22;1116;51.502;7.414;2024-01-10T00:13:22;-3.30;1.00
2543;DHT22;1116;51.502;7.414;2024-01-10T00:15:52;-3.40;1.00
2543;DHT22;1116;51.502;7.414;2024-01-10T00:18:25;-3.40;1.00
2543;DHT22;1116;51.502;7.414;2024-01-10T00:20:55;-2.90;1.00
2543;DHT22;1116;51.502;7.414;2024-01-10T00:23:25;-3.10;1.00
2543;DHT22;1116;51.502;7.414;2024-01-10T00:25:54;-3.70;1.00
2543;DHT22;1116;51.502;7.414;2024-01-10T00:28:25;-3.00;1.00
2543;DHT22;1116;51.502;7.414;2024-01-10T00:30:55;-3.30;1.00
2543;DHT22;1116;51.502;7.414;2024-01-10T00:33:27;-3.20;1.00
2543;DHT22;1116;51.502;7.414;2024-01-10T00:35:57;-3.40;1.00
2543;DHT22;1116;51.502;7.414;2024-01-10T00:38:27;-3.00;1.00
2543;DHT22;1116;51.502;7.414;2024-01-10T00:40:57;-3.00;1.00
2543;DHT22;1116;51.502;7.414;2024-01-10T00:43:27;-3.90;1.00
2543;DHT22;1116;51.502;7.414;2024-01-10T00:45:57;-3.40;1.00
2543;DHT22;1116;51.502;7.414;2024-01-10T00:48:29;-3.20;1.00
2543;DHT22;1116;51.502;7.414;2024-01-10T00:51:00;-3.30;1.00
2543;DHT22;1116;51.502;7.414;2024-01-10T00:53:35;-3.00;1.00
2543;DHT22;1116;51.502;7.414;2024-01-10T00:56:06;-3.00;1.00
2543;DHT22;1116;51.502;7.414;2024-01-10T00:58:36;-3.40;1.00
2543;DHT22;1116;51.502;7.414;2024-01-10T01:01:06;-3.10;1.00
2543;DHT22;1116;51.502;7.414;2024-01-10T01:03:39;-3.50;1.00
2543;DHT22;1116;51.502;7.414;2024-01-10T01:06:09;-3.80;1.00
2543;DHT22;1116;51.502;7.414;2024-01-10T01:08:39;-3.20;1.00
2543;DHT22;1116;51.502;7.414;2024-01-10T01:11:09;-3.90;1.00
2543;DHT22;1116;51.502;7.414;2024-01-10T01:13:41;-3.90;1.00
2543;DHT22;1116;51.502;7.414;2024-01-10T01:16:11;-3.50;1.00
2543;DHT22;1116;51.502;7.414;2024-01-10T01:18:43;-3.20;1.00
2543;DHT22;1116;51.502;7.414;2024-01-10T01:21:14;-3.40;1.00
2543;DHT22;1116;51.502;7.414;2024-01-10T01:23:44;-3.50;1.00
2543;DHT22;1116;51.502;7.414;2024-01-10T01:26:14;-3.40;1.00
2543;DHT22;1116;51.502;7.414;2024-01-10T01:28:44;-3.40;1.00
2543;DHT22;1116;51.502;7.414;2024-01-10T01:31:14;-3.20;1.00
2543;DHT22;1116;51.502;7.414;2024-01-10T01:33:47;-3.90;1.00
2543;DHT22;1116;51.502;7.414;2024-01-10T01:36:17;-3.50;1.00
2543;DHT22;1116;51.502;7.414;2024-01-10T01:38:47;-3.90;1.00
2543;DHT22;1116;51.502;7.414;2024-01-10T01:41:17;-4.30;1.00
2543;DHT22;1116;51.502;7.414;2024-01-10T01:43:47;-3.50;1.00
2543;DHT22;1116;51.502;7.414;2024-01-10T01:46:18;-4.10;1.00
2543;DHT22;1116;51.502;7.414;2024-01-10T01:48:50;-3.90;1.00
2543;DHT22;1116;51.502;7.414;2024-01-10T01:51:22;-4.10;1.00
2543;DHT22;1116;51.502;7.414;2024-01-10T01:53:52;-3.90;1.00
2543;DHT22;1116;51.502;7.414;2024-01-10T01:56:23;-4.00;1.00
2543;DHT22;1116;51.502;7.414;2024-01-10T01:58:54;-4.10;1.00
2543;DHT22;1116;51.502;7.414;2024-01-10T02:01:25;-4.50;1.00
2543;DHT22;1116;51.502;7.414;2024-01-10T02:03:59;-4.20;1.00
2543;DHT22;1116;51.502;7.414;2024-01-10T02:06:30;-4.30;1.00
2543;DHT22;1116;51.502;7.414;2024-01-10T02:09:00;-4.20;1.00
2543;DHT22;1116;51.502;7.414;2024-01-10T02:11:30;-4.70;1.00
2543;DHT22;1116;51.502;7.414;2024-01-10T02:14:00;-4.30;1.00
2543;DHT22;1116;51.502;7.414;2024-01-10T02:16:31;-4.40;1.00
2543;DHT22;1116;51.502;7.414;2024-01-10T02:19:17;-4.00;1.00
2543;DHT22;1116;51.502;7.414;2024-01-10T02:21:47;-4.40;1.00
2543;DHT22;1116;51.502;7.414;2024-01-10T02:24:18;-4.50;1.00
2543;DHT22;1116;51.502;7.414;2024-01-10T02:26:50;-4.10;1.00
2543;DHT22;1116;51.502;7.414;2024-01-10T02:29:20;-4.40;1.00
2543;DHT22;1116;51.502;7.414;2024-01-10T02:31:51;-4.10;1.00
2543;DHT22;1116;51.502;7.414;2024-01-10T02:34:21;-4.40;1.00
2543;DHT22;1116;51.502;7.414;2024-01-10T02:36:51;-4.60;1.00
2543;DHT22;1116;51.502;7.414;2024-01-10T02:39:21;-4.50;1.00
2543;DHT22;1116;51.502;7.414;2024-01-10T02:41:53;-4.50;1.00
2543;DHT22;1116;51.502;7.414;2024-01-10T02:44:23;-4.10;1.00
2543;DHT22;1116;51.502;7.414;2024-01-10T02:46:54;-4.60;1.00
2543;DHT22;1116;51.502;7.414;2024-01-10T02:49:24;-5.00;1.00
2543;DHT22;1116;51.502;7.414;2024-01-10T02:51:54;-4.20;1.00
2543;DHT22;1116;51.502;7.414;2024-01-10T02:54:24;-4.60;1.00
2543;DHT22;1116;51.502;7.414;2024-01-10T02:56:58;-4.30;1.00
2543;DHT22;1116;51.502;7.414;2024-01-10T02:59:30;-4.60;1.00
2543;DHT22;1116;51.502;7.414;2024-01-10T03:02:00;-4.40;1.00
2543;DHT22;1116;51.502;7.414;2024-01-10T03:04:33;-4.50;1.00
2543;DHT22;1116;51.502;7.414;2024-01-10T03:07:03;-4.90;1.00
2543;DHT22;1116;51.502;7.414;2024-01-10T03:09:33;-4.50;1.00
2543;DHT22;1116;51.502;7.414;2024-01-10T03:12:06;-4.20;1.00
2543;DHT22;1116;51.502;7.414;2024-01-10T03:14:36;-4.70;1.00
2543;DHT22;1116;51.502;7.414;2024-01-10T03:17:05;-4.90;1.00
2543;DHT22;1116;51.502;7.414;2024-01-10T03:19:35;-4.50;1.00
2543;DHT22;1116;51.502;7.414;2024-01-10T03:22:09;-4.70;1.00
2543;DHT22;1116;51.502;7.414;2024-01-10T03:24:40;-4.30;1.00
2543;DHT22;1116;51.502;7.414;2024-01-10T03:27:12;-4.60;1.00
2543;DHT22;1116;51.502;7.414;2024-01-10T03:29:42;-4.50;1.00
2543;DHT22;1116;51.502;7.414;2024-01-10T03:32:12;-4.80;1.00
2543;DHT22;1116;51.502;7.414;2024-01-10T03:34:42;-4.70;1.00
2543;DHT22;1116;51.502;7.414;2024-01-10T03:37:12;-4.20;1.00
2543;DHT22;1116;51.502;7.414;2024-01-10T03:39:41;-4.00;1.00
2543;DHT22;1116;51.502;7.414;2024-01-10T03:42:14;-4.60;1.00
2543;DHT22;1116;51.502;7.414;2024-01-10T03:44:44;-4.80;1.00
2543;DHT22;1116;51.502;7.414;2024-01-10T03:47:14;-4.50;1.00
2543;DHT22;1116;51.502;7.414;2024-01-10T03:49:44;-4.40;1.00
2543;DHT22;1116;51.502;7.414;2024-01-10T03:52:14;-4.90;1.00
2543;DHT22;1116;51.502;7.414;2024-01-10T03:54:46;-4.30;1.00
2543;DHT22;1116;51.502;7.414;2024-01-10T03:57:18;-4.60;1.00
2543;DHT22;1116;51.502;7.414;2024-01-10T03:59:48;-4.30;1.00
2543;DHT22;1116;51.502;7.414;2024-01-10T04:02:18;-4.30;1.00
2543;DHT22;1116;51.502;7.414;2024-01-10T04:04:48;-4.30;1.00
2543;DHT22;1116;51.502;7.414;2024-01-10T04:07:18;-4.80;1.00
2543;DHT22;1116;51.502;7.414;2024-01-10T04:09:47;-4.40;1.00
2543;DHT22;1116;51.502;7.414;2024-01-10T04:12:20;-4.50;1.00
2543;DHT22;1116;51.502;7.414;2024-01-10T04:14:50;-4.20;1.00
2543;DHT22;1116;51.502;7.414;2024-01-10T04:17:19;-5.10;1.00
2543;DHT22;1116;51.502;7.414;2024-01-10T04:19:49;-4.70;1.00
2543;DHT22;1116;51.502;7.414;2024-01-10T04:22:19;-5.20;1.00
2543;DHT22;1116;51.502;7.414;2024-01-10T04:24:49;-4.40;1.00
2543;DHT22;1116;51.502;7.414;2024-01-10T04:27:22;-4.80;1.30
2543;DHT22;1116;51.502;7.414;2024-01-10T04:29:52;-4.80;1.00
2543;DHT22;1116;51.502;7.414;2024-01-10T04:32:22;-4.90;1.00
2543;DHT22;1116;51.502;7.414;2024-01-10T04:34:52;-4.90;1.00
2543;DHT22;1116;51.502;7.414;2024-01-10T04:37:22;-4.60;1.50
2543;DHT22;1116;51.502;7.414;2024-01-10T04:39:53;-5.40;1.20
2543;DHT22;1116;51.502;7.414;2024-01-10T04:42:25;-5.00;1.10
2543;DHT22;1116;51.502;7.414;2024-01-10T04:44:55;-4.70;1.20
2543;DHT22;1116;51.502;7.414;2024-01-10T04:47:25;-4.50;1.00
2543;DHT22;1116;51.502;7.414;2024-01-10T04:49:55;-5.00;1.00
2543;DHT22;1116;51.502;7.414;2024-01-10T04:52:25;-4.80;1.50
2543;DHT22;1116;51.502;7.414;2024-01-10T04:54:55;-5.10;2.70
2543;DHT22;1116;51.502;7.414;2024-01-10T04:57:27;-5.40;2.30
2543;DHT22;1116;51.502;7.414;2024-01-10T04:59:57;-4.60;2.70
2543;DHT22;1116;51.502;7.414;2024-01-10T05:02:27;-5.40;2.20
2543;DHT22;1116;51.502;7.414;2024-01-10T05:04:57;-5.10;2.70
2543;DHT22;1116;51.502;7.414;2024-01-10T05:07:28;-5.30;2.60
2543;DHT22;1116;51.502;7.414;2024-01-10T05:09:58;-4.90;2.40
2543;DHT22;1116;51.502;7.414;2024-01-10T05:12:30;-5.10;2.40
2543;DHT22;1116;51.502;7.414;2024-01-10T05:15:00;-5.30;2.70
2543;DHT22;1116;51.502;7.414;2024-01-10T05:17:31;-4.80;2.80
2543;DHT22;1116;51.502;7.414;2024-01-10T05:20:00;-5.10;3.20
2543;DHT22;1116;51.502;7.414;2024-01-10T05:22:31;-4.80;3.40
2543;DHT22;1116;51.502;7.414;2024-01-10T05:25:00;-5.60;2.80
2543;DHT22;1116;51.502;7.414;2024-01-10T05:27:34;-5.80;2.20
2543;DHT22;1116;51.502;7.414;2024-01-10T05:30:05;-5.70;3.20
2543;DHT22;1116;51.502;7.414;2024-01-10T05:32:35;-5.20;3.00
2543;DHT22;1116;51.502;7.414;2024-01-10T05:35:06;-5.40;3.90
2543;DHT22;1116;51.502;7.414;2024-01-10T05:37:37;-5.30;3.50
2543;DHT22;1116;51.502;7.414;2024-01-10T05:40:08;-5.40;3.40
2543;DHT22;1116;51.502;7.414;2024-01-10T05:42:40;-5.30;2.30
2543;DHT22;1116;51.502;7.414;2024-01-10T05:45:10;-5.10;2.30
2543;DHT22;1116;51.502;7.414;2024-01-10T05:47:40;-5.40;1.70
2543;DHT22;1116;51.502;7.414;2024-01-10T05:50:10;-5.30;2.20
2543;DHT22;1116;51.502;7.414;2024-01-10T05:52:40;-4.80;2.20
2543;DHT22;1116;51.502;7.414;2024-01-10T05:55:12;-5.50;2.40
2543;DHT22;1116;51.502;7.414;2024-01-10T05:57:45;-5.00;2.50
2543;DHT22;1116;51.502;7.414;2024-01-10T06:00:15;-5.20;1.90
2543;DHT22;1116;51.502;7.414;2024-01-10T06:02:48;-5.20;2.50
2543;DHT22;1116;51.502;7.414;2024-01-10T06:05:18;-4.90;3.60
2543;DHT22;1116;51.502;7.414;2024-01-10T06:07:48;-4.70;3.20
2543;DHT22;1116;51.502;7.414;2024-01-10T06:10:19;-4.90;3.30
2543;DHT22;1116;51.502;7.414;2024-01-10T06:12:52;-5.00;3.60
2543;DHT22;1116;51.502;7.414;2024-01-10T06:15:21;-5.30;3.70
2543;DHT22;1116;51.502;7.414;2024-01-10T06:17:51;-5.30;3.40
2543;DHT22;1116;51.502;7.414;2024-01-10T06:20:21;-5.30;3.00
2543;DHT22;1116;51.502;7.414;2024-01-10T06:22:51;-5.80;3.50
2543;DHT22;1116;51.502;7.414;2024-01-10T06:25:21;-5.70;4.20
2543;DHT22;1116;51.502;7.414;2024-01-10T06:27:54;-5.20;4.20
2543;DHT22;1116;51.502;7.414;2024-01-10T06:30:23;-5.60;2.90
2543;DHT22;1116;51.502;7.414;2024-01-10T06:32:53;-5.60;3.40
2543;DHT22;1116;51.502;7.414;2024-01-10T06:35:23;-5.30;2.30
2543;DHT22;1116;51.502;7.414;2024-01-10T06:37:53;-5.10;3.20
2543;DHT22;1116;51.502;7.414;2024-01-10T06:40:23;-4.90;3.70
2543;DHT22;1116;51.502;7.414;2024-01-10T06:42:56;-5.30;4.20
2543;DHT22;1116;51.502;7.414;2024-01-10T06:45:26;-5.20;4.20
2543;DHT22;1116;51.502;7.414;2024-01-10T06:47:56;-5.30;4.50
2543;DHT22;1116;51.502;7.414;2024-01-10T06:50:26;-5.70;4.00
2543;DHT22;1116;51.502;7.414;2024-01-10T06:52:57;-5.30;4.50
2543;DHT22;1116;51.502;7.414;2024-01-10T06:55:27;-5.00;4.40
2543;DHT22;1116;51.502;7.414;2024-01-10T06:58:00;-5.50;3.90
2543;DHT22;1116;51.502;7.414;2024-01-10T07:00:30;-5.30;4.50
2543;DHT22;1116;51.502;7.414;2024-01-10T07:03:01;-5.10;4.70
2543;DHT22;1116;51.502;7.414;2024-01-10T07:05:31;-5.10;3.40
2543;DHT22;1116;51.502;7.414;2024-01-10T07:08:02;-5.70;2.40
2543;DHT22;1116;51.502;7.414;2024-01-10T07:10:32;-5.30;4.40
2543;DHT22;1116;51.502;7.414;2024-01-10T07:13:05;-5.20;5.10
2543;DHT22;1116;51.502;7.414;2024-01-10T07:15:35;-5.30;5.50
2543;DHT22;1116;51.502;7.414;2024-01-10T07:18:06;-5.20;5.50
2543;DHT22;1116;51.502;7.414;2024-01-10T07:20:36;-5.40;4.70
2543;DHT22;1116;51.502;7.414;2024-01-10T07:23:06;-5.30;5.40
2543;DHT22;1116;51.502;7.414;2024-01-10T07:25:36;-5.50;5.40
2543;DHT22;1116;51.502;7.414;2024-01-10T07:28:08;-5.20;4.60
2543;DHT22;1116;51.502;7.414;2024-01-10T07:30:38;-5.20;3.10
2543;DHT22;1116;51.502;7.414;2024-01-10T07:33:08;-5.00;3.80
2543;DHT22;1116;51.502;7.414;2024-01-10T07:35:38;-4.90;4.50
2543;DHT22;1116;51.502;7.414;2024-01-10T07:38:08;-5.70;3.70
2543;DHT22;1116;51.502;7.414;2024-01-10T07:40:38;-5.80;2.80
2543;DHT22;1116;51.502;7.414;2024-01-10T07:43:10;-5.80;2.90
2543;DHT22;1116;51.502;7.414;2024-01-10T07:45:41;-5.60;3.10
2543;DHT22;1116;51.502;7.414;2024-01-10T07:48:10;-5.10;2.60
2543;DHT22;1116;51.502;7.414;2024-01-10T07:50:40;-4.80;2.90
2543;DHT22;1116;51.502;7.414;2024-01-10T07:53:11;-5.20;2.50
2543;DHT22;1116;51.502;7.414;2024-01-10T07:55:42;-5.10;2.50
2543;DHT22;1116;51.502;7.414;2024-01-10T07:58:14;-4.80;2.70
2543;DHT22;1116;51.502;7.414;2024-01-10T08:00:44;-5.00;2.70
2543;DHT22;1116;51.502;7.414;2024-01-10T08:03:14;-5.40;2.30
2543;DHT22;1116;51.502;7.414;2024-01-10T08:05:44;-5.10;2.30
2543;DHT22;1116;51.502;7.414;2024-01-10T08:08:15;-5.40;2.00
2543;DHT22;1116;51.502;7.414;2024-01-10T08:10:45;-5.10;2.20
2543;DHT22;1116;51.502;7.414;2024-01-10T08:13:17;-5.00;2.20
2543;DHT22;1116;51.502;7.414;2024-01-10T08:15:47;-4.50;2.50
2543;DHT22;1116;51.502;7.414;2024-01-10T08:18:17;-4.90;1.80
2543;DHT22;1116;51.502;7.414;2024-01-10T08:20:47;-4.80;2.10
2543;DHT22;1116;51.502;7.414;2024-01-10T08:23:17;-5.10;1.50
2543;DHT22;1116;51.502;7.414;2024-01-10T08:25:47;-4.30;2.20
2543;DHT22;1116;51.502;7.414;2024-01-10T08:28:20;-4.30;1.50
2543;DHT22;1116;51.502;7.414;2024-01-10T08:30:50;-4.30;1.20
2543;DHT22;1116;51.502;7.414;2024-01-10T08:33:25;-4.70;1.00
2543;DHT22;1116;51.502;7.414;2024-01-10T08:35:57;-4.70;1.00
2543;DHT22;1116;51.502;7.414;2024-01-10T08:38:28;-4.60;1.00
2543;DHT22;1116;51.502;7.414;2024-01-10T08:40:58;-4.40;1.30
2543;DHT22;1116;51.502;7.414;2024-01-10T08:43:30;-4.60;1.00
2543;DHT22;1116;51.502;7.414;2024-01-10T08:46:00;-4.90;1.00
2543;DHT22;1116;51.502;7.414;2024-01-10T08:48:30;-4.90;1.00
2543;DHT22;1116;51.502;7.414;2024-01-10T08:51:00;-4.30;1.00
2543;DHT22;1116;51.502;7.414;2024-01-10T08:53:30;-4.70;1.00
2543;DHT22;1116;51.502;7.414;2024-01-10T08:56:00;-3.80;1.00
2543;DHT22;1116;51.502;7.414;2024-01-10T08:58:32;-4.10;1.00
2543;DHT22;1116;51.502;7.414;2024-01-10T09:01:02;-3.70;1.00
2543;DHT22;1116;51.502;7.414;2024-01-10T09:03:35;-3.90;1.00
2543;DHT22;1116;51.502;7.414;2024-01-10T09:06:05;-3.50;1.00
2543;DHT22;1116;51.502;7.414;2024-01-10T09:08:38;-3.80;1.00
2543;DHT22;1116;51.502;7.414;2024-01-10T09:11:08;-3.90;1.00
2543;DHT22;1116;51.502;7.414;2024-01-10T09:13:41;-3.60;1.00
2543;DHT22;1116;51.502;7.414;2024-01-10T09:16:11;-3.70;1.00
2543;DHT22;1116;51.502;7.414;2024-01-10T09:18:41;-3.60;1.00
2543;DHT22;1116;51.502;7.414;2024-01-10T09:21:11;-3.40;1.00
2543;DHT22;1116;51.502;7.414;2024-01-10T09:23:42;-3.00;1.00
2543;DHT22;1116;51.502;7.414;2024-01-10T09:26:12;-3.50;1.00
2543;DHT22;1116;51.502;7.414;2024-01-10T09:28:44;-2.90;1.00
2543;DHT22;1116;51.502;7.414;2024-01-10T09:31:14;-3.20;1.00
2543;DHT22;1116;51.502;7.414;2024-01-10T09:33:44;-3.80;1.00
2543;DHT22;1116;51.502;7.414;2024-01-10T09:36:14;-3.40;1.00
2543;DHT22;1116;51.502;7.414;2024-01-10T09:38:44;-3.80;1.00
2543;DHT22;1116;51.502;7.414;2024-01-10T09:41:15;-3.30;1.00
2543;DHT22;1116;51.502;7.414;2024-01-10T09:43:48;-3.60;1.00
2543;DHT22;1116;51.502;7.414;2024-01-10T09:46:18;-3.30;1.00
2543;DHT22;1116;51.502;7.414;2024-01-10T09:48:48;-3.10;1.00
2543;DHT22;1116;51.502;7.414;2024-01-10T09:51:23;-3.40;1.00
2543;DHT22;1116;51.502;7.414;2024-01-10T09:53:54;-2.70;1.00
2543;DHT22;1116;51.502;7.414;2024-01-10T09:56:25;-2.70;1.00
2543;DHT22;1116;51.502;7.414;2024-01-10T09:58:58;-2.50;1.00
2543;DHT22;1116;51.502;7.414;2024-01-10T10:01:31;-2.90;1.00
2543;DHT22;1116;51.502;7.414;2024-01-10T10:04:02;-3.00;1.00
2543;DHT22;1116;51.502;7.414;2024-01-10T10:06:32;-2.40;1.00
2543;DHT22;1116;51.502;7.414;2024-01-10T10:09:03;-2.80;1.00
2543;DHT22;1116;51.502;7.414;2024-01-10T10:11:33;-2.80;1.00
2543;DHT22;1116;51.502;7.414;2024-01-10T10:14:28;-3.20;1.00
2543;DHT22;1116;51.502;7.414;2024-01-10T10:17:14;-3.10;1.00
2543;DHT22;1116;51.502;7.414;2024-01-10T10:19:45;-2.60;1.00
2543;DHT22;1116;51.502;7.414;2024-01-10T10:22:15;-2.20;1.00
2543;DHT22;1116;51.502;7.414;2024-01-10T10:24:48;-2.80;1.00
2543;DHT22;1116;51.502;7.414;2024-01-10T10:27:20;-2.50;1.00
2543;DHT22;1116;51.502;7.414;2024-01-10T10:29:52;-2.80;1.00
2543;DHT22;1116;51.502;7.414;2024-01-10T10:32:22;-2.00;1.00
2543;DHT22;1116;51.502;7.414;2024-01-10T10:34:52;-2.40;1.00
2543;DHT22;1116;51.502;7.414;2024-01-10T10:37:26;-1.90;1.00
2543;DHT22;1116;51.502;7.414;2024-01-10T10:39:55;-2.10;1.00
2543;DHT22;1116;51.502;7.414;2024-01-10T10:42:27;-1.90;1.00
2543;DHT22;1116;51.502;7.414;2024-01-10T10:45:03;-2.10;1.00
2543;DHT22;1116;51.502;7.414;2024-01-10T10:47:36;-2.00;1.00
2543;DHT22;1116;51.502;7.414;2024-01-10T10:50:13;-1.60;1.00
2543;DHT22;1116;51.502;7.414;2024-01-10T10:52:45;-1.90;1.00
2543;DHT22;1116;51.502;7.414;2024-01-10T10:55:17;-1.80;1.00
2543;DHT22;1116;51.502;7.414;2024-01-10T10:57:48;-1.70;1.00
2543;DHT22;1116;51.502;7.414;2024-01-10T11:00:33;-1.70;1.00
2543;DHT22;1116;51.502;7.414;2024-01-10T11:03:04;-1.20;1.00
2543;DHT22;1116;51.502;7.414;2024-01-10T11:05:35;-1.70;1.00
2543;DHT22;1116;51.502;7.414;2024-01-10T11:08:08;-1.20;1.00
2543;DHT22;1116;51.502;7.414;2024-01-10T11:10:41;-1.90;1.00
2543;DHT22;1116;51.502;7.414;2024-01-10T11:13:28;-1.40;1.00
2543;DHT22;1116;51.502;7.414;2024-01-10T11:16:33;-1.30;1.00
2543;DHT22;1116;51.502;7.414;2024-01-10T11:19:33;-1.30;1.00
2543;DHT22;1116;51.502;7.414;2024-01-10T11:22:19;-1.60;1.00
2543;DHT22;1116;51.502;7.414;2024-01-10T11:24:50;-1.20;1.00
2543;DHT22;1116;51.502;7.414;2024-01-10T11:27:26;-1.10;1.00
2543;DHT22;1116;51.502;7.414;2024-01-10T11:29:56;-1.10;1.00
2543;DHT22;1116;51.502;7.414;2024-01-10T11:32:29;-1.10;1.00
2543;DHT22;1116;51.502;7.414;2024-01-10T11:35:00;-0.90;1.00
2543;DHT22;1116;51.502;7.414;2024-01-10T11:37:39;-0.90;1.00
2543;DHT22;1116;51.502;7.414;2024-01-10T11:40:11;-0.90;1.00
2543;DHT22;1116;51.502;7.414;2024-01-10T11:42:41;-0.90;1.00
2543;DHT22;1116;51.502;7.414;2024-01-10T11:45:36;-0.50;1.00
2543;DHT22;1116;51.502;7.414;2024-01-10T11:48:10;-0.40;1.00
2543;DHT22;1116;51.502;7.414;2024-01-10T11:50:40;-0.50;1.00
2543;DHT22;1116;51.502;7.414;2024-01-10T11:53:11;-0.80;1.00
2543;DHT22;1116;51.502;7.414;2024-01-10T11:55:50;-0.80;1.00
2543;DHT22;1116;51.502;7.414;2024-01-10T11:58:23;-0.70;1.00
2543;DHT22;1116;51.502;7.414;2024-01-10T12:00:53;-0.30;1.00
2543;DHT22;1116;51.502;7.414;2024-01-10T12:03:26;-0.10;1.00
2543;DHT22;1116;51.502;7.414;2024-01-10T12:05:58;-0.30;1.00
2543;DHT22;1116;51.502;7.414;2024-01-10T12:08:28;-0.10;1.00
2543;DHT22;1116;51.502;7.414;2024-01-10T12:10:59;0.00;1.00
2543;DHT22;1116;51.502;7.414;2024-01-10T12:13:29;-0.30;1.00
2543;DHT22;1116;51.502;7.414;2024-01-10T12:15:59;0.10;1.00
2543;DHT22;1116;51.502;7.414;2024-01-10T12:18:32;-0.10;1.00
2543;DHT22;1116;51.502;7.414;2024-01-10T12:21:01;0.30;1.00
2543;DHT22;1116;51.502;7.414;2024-01-10T12:23:31;0.00;1.00
2543;DHT22;1116;51.502;7.414;2024-01-10T12:26:02;0.10;1.00
2543;DHT22;1116;51.502;7.414;2024-01-10T12:28:34;0.10;1.00
2543;DHT22;1116;51.502;7.414;2024-01-10T12:31:04;0.10;1.00
2543;DHT22;1116;51.502;7.414;2024-01-10T12:33:37;0.10;1.00
2543;DHT22;1116;51.502;7.414;2024-01-10T12:36:08;0.30;1.00
2543;DHT22;1116;51.502;7.414;2024-01-10T12:38:39;0.20;1.00
2543;DHT22;1116;51.502;7.414;2024-01-10T12:41:09;0.30;1.00
2543;DHT22;1116;51.502;7.414;2024-01-10T12:43:39;0.40;1.00
2543;DHT22;1116;51.502;7.414;2024-01-10T12:46:10;0.50;1.00
2543;DHT22;1116;51.502;7.414;2024-01-10T12:48:43;0.50;1.00
2543;DHT22;1116;51.502;7.414;2024-01-10T12:51:13;0.50;1.00
2543;DHT22;1116;51.502;7.414;2024-01-10T12:53:44;0.60;1.00
2543;DHT22;1116;51.502;7.414;2024-01-10T12:56:13;0.60;1.00
2543;DHT22;1116;51.502;7.414;2024-01-10T12:58:43;0.80;1.00
2543;DHT22;1116;51.502;7.414;2024-01-10T13:01:13;0.80;1.00
2543;DHT22;1116;51.502;7.414;2024-01-10T13:03:45;0.70;1.00
2543;DHT22;1116;51.502;7.414;2024-01-10T13:06:16;0.90;1.00
2543;DHT22;1116;51.502;7.414;2024-01-10T13:08:49;0.80;1.00
2543;DHT22;1116;51.502;7.414;2024-01-10T13:11:20;0.80;1.00
2543;DHT22;1116;51.502;7.414;2024-01-10T13:13:50;0.80;1.00
2543;DHT22;1116;51.502;7.414;2024-01-10T13:16:20;0.90;1.00
2543;DHT22;1116;51.502;7.414;2024-01-10T13:18:54;0.80;1.00
2543;DHT22;1116;51.502;7.414;2024-01-10T13:21:24;0.90;1.00
2543;DHT22;1116;51.502;7.414;2024-01-10T13:23:54;0.90;1.00
2543;DHT22;1116;51.502;7.414;2024-01-10T13:26:24;0.90;1.00
2543;DHT22;1116;51.502;7.414;2024-01-10T13:28:54;0.90;1.00
2543;DHT22;1116;51.502;7.414;2024-01-10T13:31:24;0.90;1.00
2543;DHT22;1116;51.502;7.414;2024-01-10T13:33:56;0.90;1.00
2543;DHT22;1116;51.502;7.414;2024-01-10T13:36:26;1.10;1.00
2543;DHT22;1116;51.502;7.414;2024-01-10T13:38:57;1.00;1.00
2543;DHT22;1116;51.502;7.414;2024-01-10T13:41:27;1.00;1.00
2543;DHT22;1116;51.502;7.414;2024-01-10T13:43:57;1.10;1.00
2543;DHT22;1116;51.502;7.414;2024-01-10T13:46:27;1.10;1.00
2543;DHT22;1116;51.502;7.414;2024-01-10T13:49:00;1.10;1.00
2543;DHT22;1116;51.502;7.414;2024-01-10T13:51:30;1.00;1.00
2543;DHT22;1116;51.502;7.414;2024-01-10T13:54:00;1.00;1.00
2543;DHT22;1116;51.502;7.414;2024-01-10T13:56:30;1.00;1.00
2543;DHT22;1116;51.502;7.414;2024-01-10T13:59:01;1.00;1.00
2543;DHT22;1116;51.502;7.414;2024-01-10T14:01:31;1.10;1.00
2543;DHT22;1116;51.502;7.414;2024-01-10T14:04:05;1.10;1.00
2543;DHT22;1116;51.502;7.414;2024-01-10T14:06:34;1.20;1.00
2543;DHT22;1116;51.502;7.414;2024-01-10T14:09:04;1.10;1.00
2543;DHT22;1116;51.502;7.414;2024-01-10T14:11:36;1.20;1.00
2543;DHT22;1116;51.502;7.414;2024-01-10T14:14:06;1.10;1.00
2543;DHT22;1116;51.502;7.414;2024-01-10T14:16:36;1.10;1.00
2543;DHT22;1116;51.502;7.414;2024-01-10T14:19:10;1.30;1.00
2543;DHT22;1116;51.502;7.414;2024-01-10T14:21:40;1.10;1.00
2543;DHT22;1116;51.502;7.414;2024-01-10T14:24:10;1.20;1.00
2543;DHT22;1116;51.502;7.414;2024-01-10T14:26:41;1.10;1.00
2543;DHT22;1116;51.502;7.414;2024-01-10T14:29:10;1.00;1.00
2543;DHT22;1116;51.502;7.414;2024-01-10T14:31:40;1.00;1.00
2543;DHT22;1116;51.502;7.414;2024-01-10T14:34:18;1.00;1.00
2543;DHT22;1116;51.502;7.414;2024-01-10T14:36:53;1.00;1.00
2543;DHT22;1116;51.502;7.414;2024-01-10T14:39:23;1.00;1.00
2543;DHT22;1116;51.502;7.414;2024-01-10T14:41:57;1.10;1.00
2543;DHT22;1116;51.502;7.414;2024-01-10T14:44:29;1.10;1.00
2543;DHT22;1116;51.502;7.414;2024-01-10T14:46:58;1.10;1.00
2543;DHT22;1116;51.502;7.414;2024-01-10T14:49:40;1.00;1.00
2543;DHT22;1116;51.502;7.414;2024-01-10T14:52:10;1.00;1.00
2543;DHT22;1116;51.502;7.414;2024-01-10T14:54:40;0.90;1.00
2543;DHT22;1116;51.502;7.414;2024-01-10T14:57:10;1.00;1.00
2543;DHT22;1116;51.502;7.414;2024-01-10T14:59:40;1.00;1.00
2543;DHT22;1116;51.502;7.414;2024-01-10T15:02:14;0.80;1.00
2543;DHT22;1116;51.502;7.414;2024-01-10T15:04:48;0.90;1.00
2543;DHT22;1116;51.502;7.414;2024-01-10T15:07:18;0.80;1.00
2543;DHT22;1116;51.502;7.414;2024-01-10T15:09:48;0.80;1.00
2543;DHT22;1116;51.502;7.414;2024-01-10T15:12:18;0.70;1.00
2543;DHT22;1116;51.502;7.414;2024-01-10T15:14:48;0.70;1.00
2543;DHT22;1116;51.502;7.414;2024-01-10T15:17:18;0.70;1.00
2543;DHT22;1116;51.502;7.414;2024-01-10T15:19:50;0.80;1.00
2543;DHT22;1116;51.502;7.414;2024-01-10T15:22:20;0.70;1.00
2543;DHT22;1116;51.502;7.414;2024-01-10T15:24:50;0.80;1.00
2543;DHT22;1116;51.502;7.414;2024-01-10T15:27:20;0.70;1.00
2543;DHT22;1116;51.502;7.414;2024-01-10T15:29:50;0.70;1.00
2543;DHT22;1116;51.502;7.414;2024-01-10T15:32:32;0.70;1.00
2543;DHT22;1116;51.502;7.414;2024-01-10T15:35:05;0.60;1.00
2543;DHT22;1116;51.502;7.414;2024-01-10T15:37:35;0.60;1.00
2543;DHT22;1116;51.502;7.414;2024-01-10T15:40:07;0.90;1.00
2543;DHT22;1116;51.502;7.414;2024-01-10T15:42:38;0.50;1.00
2543;DHT22;1116;51.502;7.414;2024-01-10T15:45:11;0.50;1.00
2543;DHT22;1116;51.502;7.414;2024-01-10T15:47:41;0.50;1.00
2543;DHT22;1116;51.502;7.414;2024-01-10T15:50:13;0.50;1.00
2543;DHT22;1116;51.502;7.414;2024-01-10T15:52:43;0.70;1.00
2543;DHT22;1116;51.502;7.414;2024-01-10T15:55:16;0.40;1.00
2543;DHT22;1116;51.502;7.414;2024-01-10T15:57:46;0.30;1.00
2543;DHT22;1116;51.502;7.414;2024-01-10T16:00:16;0.60;1.00
2543;DHT22;1116;51.502;7.414;2024-01-10T16:02:46;0.30;1.00
2543;DHT22;1116;51.502;7.414;2024-01-10T16:05:18;0.20;1.00
2543;DHT22;1116;51.502;7.414;2024-01-10T16:07:49;0.60;1.00
2543;DHT22;1116;51.502;7.414;2024-01-10T16:10:18;0.10;1.00
2543;DHT22;1116;51.502;7.414;2024-01-10T16:12:48;0.00;1.00
2543;DHT22;1116;51.502;7.414;2024-01-10T16:15:18;0.00;1.00
2543;DHT22;1116;51.502;7.414;2024-01-10T16:17:48;0.00;1.00
2543;DHT22;1116;51.502;7.414;2024-01-10T16:20:20;0.00;1.00
2543;DHT22;1116;51.502;7.414;2024-01-10T16:22:50;0.40;1.00
2543;DHT22;1116;51.502;7.414;2024-01-10T16:25:20;0.10;1.00
2543;DHT22;1116;51.502;7.414;2024-01-10T16:27:50;0.00;1.00
2543;DHT22;1116;51.502;7.414;2024-01-10T16:30:20;0.00;1.00
2543;DHT22;1116;51.502;7.414;2024-01-10T16:32:50;0.00;1.00
2543;DHT22;1116;51.502;7.414;2024-01-10T16:35:22;0.00;1.00
2543;DHT22;1116;51.502;7.414;2024-01-10T16:37:52;0.00;1.00
2543;DHT22;1116;51.502;7.414;2024-01-10T16:40:22;0.00;1.00
2543;DHT22;1116;51.502;7.414;2024-01-10T16:42:52;0.20;1.00
2543;DHT22;1116;51.502;7.414;2024-01-10T16:45:22;-0.10;1.00
2543;DHT22;1116;51.502;7.414;2024-01-10T16:47:52;0.20;1.00